KCNY

Canyonlands Field Airport

Moab, Utah, USA
KCNY 220028Z 2200/2224 28008KT P6SM VCSH OVC045 TEMPO 2200/2204 31010G18KT 4SM -SN BR BKN035 FM220400 30013KT P6SM VCSH BKN045 OVC060 FM221600 35008KT P6SM FEW050 SCT150
Issued Valid From Valid To
Jan-22 @ 00:28 UTC
(6 minutes ago)
Jan-22 @ 00:00 UTC
(34 minutes ago)
Jan-23 @ 00:00 UTC
(in 23 hours)
Jan-22 @ 00:00 to Jan-22 @ 04:00
KCNY 220028Z 2200/2224 28008KT P6SM VCSH OVC045
Wind Visibility Clouds
280° at 8 knots Greater than 6 miles
  • Overcast at 4,500' AGL
Temporary Jan-22 @ 00:00 to Jan-22 @ 04:00
TEMPO 2200/2204 31010G18KT 4SM -SN BR BKN035
Wind Visibility Clouds Conditions
310° at 10 knots
 Gusting to 18 knots
4 miles
  • Broken at 3,500' AGL
  • Light Snow
  • Mist
From Jan-22 @ 04:00 to Jan-22 @ 16:00
FM220400 30013KT P6SM VCSH BKN045 OVC060
Wind Visibility Clouds
300° at 13 knots Greater than 6 miles
  • Broken at 4,500' AGL
  • Overcast at 6,000' AGL
From Jan-22 @ 16:00 to Jan-23 @ 00:00
FM221600 35008KT P6SM FEW050 SCT150
Wind Visibility Clouds
350° at 8 knots Greater than 6 miles
  • Few at 5,000' AGL
  • Scattered at 15,000' AGL
KCNY 220028Z 2200/2224 28008KT P6SM VCSH OVC045 TEMPO 2200/2204 31010G18KT 4SM -SN BR BKN035 FM220400 30013KT P6SM VCSH BKN045 OVC060 FM221600 35008KT P6SM FEW050 SCT150
Issued Jan-22 @ 00:28 UTC
(6 minutes ago)
Valid From Jan-22 @ 00:00 UTC
(34 minutes ago)
Valid To Jan-23 @ 00:00 UTC
(in 23 hours)
Jan-22 @ 00:00 - Jan-22 @ 04:00
Wind Visibility
280° at 8 knots Greater than 6 miles
Clouds
  • Overcast at 4,500' AGL
Temporary Jan-22 @ 00:00 - Jan-22 @ 04:00
Wind Visibility
310° at 10 knots
 Gusting to 18 knots
4 miles
Clouds
  • Broken at 3,500' AGL
Conditions
  • Light Snow
  • Mist
From Jan-22 @ 04:00 - Jan-22 @ 16:00
Wind Visibility
300° at 13 knots Greater than 6 miles
Clouds
  • Broken at 4,500' AGL
  • Overcast at 6,000' AGL
From Jan-22 @ 16:00 - Jan-23 @ 00:00
Wind Visibility
350° at 8 knots Greater than 6 miles
Clouds
  • Few at 5,000' AGL
  • Scattered at 15,000' AGL